You are listening to:
LHBP Info - Budapest, Hungary

LHBP 270830Z 07005KT 040V110 9000 FEW005 12/10 Q1012 NOSIG

If stream doesn't start automatically press the play button
If stream stops then reload player then press play